Time;durP1;ratioP1;P1;durP2;ratioP2;P2;SDS_P1;SDS_P2;PMS_P1;PMS_P2;Temp;Humidity;BMP_temperature;BMP_pressure;BME280_temperature;BME280_humidity;BME280_pressure;Samples;Min_cycle;Max_cycle;Signal;HPM_P1;HPM_P2
2021/12/28 00:00:07;;;;;;;7.10;5.20;;;8.20;1.00;;;;;;5011543;28;20211;-60
2021/12/28 00:02:33;;;;;;;7.03;5.57;;;8.10;1.00;;;;;;5012021;28;20245;-60
2021/12/28 00:05:00;;;;;;;8.30;5.03;;;8.10;1.00;;;;;;5012216;28;20692;-57
2021/12/28 00:07:27;;;;;;;7.43;5.33;;;8.10;1.00;;;;;;5010612;28;20236;-59
2021/12/28 00:09:54;;;;;;;8.07;5.87;;;8.20;1.00;;;;;;5012259;28;20736;-60
2021/12/28 00:12:22;;;;;;;8.40;4.90;;;8.10;1.00;;;;;;5011713;28;20219;-60
2021/12/28 00:15:02;;;;;;;6.83;4.73;;;8.10;1.00;;;;;;5011500;28;20212;-60
2021/12/28 00:20:13;;;;;;;7.50;4.93;;;8.10;1.00;;;;;;5012347;28;20343;-60
2021/12/28 00:22:40;;;;;;;6.73;4.87;;;8.10;1.00;;;;;;5011625;28;20673;-59
2021/12/28 00:25:08;;;;;;;7.03;4.90;;;8.10;1.00;;;;;;5011898;28;20248;-58
2021/12/28 00:27:36;;;;;;;6.50;4.60;;;8.10;1.00;;;;;;5011207;28;20231;-57
2021/12/28 00:30:03;;;;;;;5.07;4.00;;;8.20;1.00;;;;;;5011803;28;20262;-56
2021/12/28 00:32:30;;;;;;;6.27;3.90;;;8.20;1.00;;;;;;5011464;28;20213;-56
2021/12/28 00:34:57;;;;;;;6.33;3.87;;;8.20;1.00;;;;;;5011740;28;20212;-59
2021/12/28 00:37:23;;;;;;;5.43;4.07;;;8.30;1.00;;;;;;5010953;28;20232;-59
2021/12/28 00:39:50;;;;;;;5.47;3.70;;;8.30;1.00;;;;;;5011770;28;20669;-60
2021/12/28 00:42:17;;;;;;;8.20;3.90;;;8.20;1.00;;;;;;5011902;28;20202;-58
2021/12/28 00:44:47;;;;;;;4.80;3.60;;;8.20;1.00;;;;;;5012071;28;20216;-59
2021/12/28 00:47:14;;;;;;;4.83;3.80;;;8.20;1.00;;;;;;5011881;28;20286;-60
2021/12/28 00:49:41;;;;;;;4.80;3.50;;;8.20;1.00;;;;;;5011361;28;20206;-59
2021/12/28 00:52:08;;;;;;;6.43;3.90;;;8.10;1.00;;;;;;5011296;28;20270;-59
2021/12/28 00:54:35;;;;;;;4.50;3.30;;;8.10;1.00;;;;;;5011618;28;20261;-60
2021/12/28 00:57:02;;;;;;;5.23;3.77;;;8.10;1.00;;;;;;5011045;28;20674;-60
2021/12/28 00:59:28;;;;;;;5.73;3.83;;;8.10;1.00;;;;;;5011570;28;20776;-60
2021/12/28 01:01:57;;;;;;;4.53;3.60;;;8.10;1.00;;;;;;5012320;28;20211;-59
2021/12/28 01:04:25;;;;;;;5.40;3.50;;;8.00;1.00;;;;;;5011690;28;20262;-59
2021/12/28 01:06:52;;;;;;;7.47;3.73;;;8.10;1.00;;;;;;5011832;28;20212;-60
2021/12/28 01:09:19;;;;;;;6.63;3.90;;;8.00;1.00;;;;;;5011899;28;20232;-59
2021/12/28 01:11:45;;;;;;;6.97;3.63;;;7.90;1.00;;;;;;5011833;28;20219;-59
2021/12/28 01:14:12;;;;;;;7.73;3.67;;;7.90;1.00;;;;;;5011821;28;20667;-59
2021/12/28 01:16:39;;;;;;;5.13;3.40;;;7.80;1.00;;;;;;5011282;28;20223;-60
2021/12/28 01:19:08;;;;;;;6.77;3.40;;;7.90;1.00;;;;;;5012683;28;20228;-61
2021/12/28 01:21:35;;;;;;;7.50;3.30;;;7.80;1.00;;;;;;5015160;28;20211;-60
2021/12/28 01:24:01;;;;;;;6.93;3.40;;;7.80;1.00;;;;;;5015314;28;20207;-59
2021/12/28 01:26:28;;;;;;;6.13;3.30;;;7.80;1.00;;;;;;5014882;28;20666;-55
2021/12/28 01:28:55;;;;;;;7.20;3.23;;;7.80;1.00;;;;;;5014838;28;20240;-59
2021/12/28 01:31:21;;;;;;;7.53;3.30;;;7.70;1.00;;;;;;5014973;28;20204;-57
2021/12/28 01:33:48;;;;;;;4.87;3.33;;;7.80;1.00;;;;;;5014661;28;20743;-54
2021/12/28 01:36:16;;;;;;;6.90;3.60;;;7.80;1.00;;;;;;5014916;28;20608;-54
2021/12/28 01:38:43;;;;;;;8.63;3.77;;;7.80;1.00;;;;;;5014661;28;20243;-57
2021/12/28 01:41:10;;;;;;;7.57;3.97;;;7.80;1.00;;;;;;5016697;28;20203;-59
2021/12/28 01:43:38;;;;;;;6.90;3.33;;;7.70;1.00;;;;;;5015580;28;20620;-58
2021/12/28 01:46:05;;;;;;;7.87;3.40;;;7.60;1.00;;;;;;5015298;28;20203;-60
2021/12/28 01:48:34;;;;;;;9.37;3.43;;;7.60;1.00;;;;;;5014506;28;20243;-57
2021/12/28 01:51:04;;;;;;;8.47;3.47;;;7.60;1.00;;;;;;5014919;28;20214;-58
2021/12/28 01:53:32;;;;;;;4.97;3.20;;;7.60;1.00;;;;;;5015204;28;20238;-60
2021/12/28 01:56:03;;;;;;;7.20;3.47;;;7.60;1.00;;;;;;5015968;28;20238;-57
2021/12/28 01:58:30;;;;;;;8.83;3.13;;;7.60;1.00;;;;;;5015733;28;20350;-60
2021/12/28 02:00:57;;;;;;;9.27;3.87;;;7.60;1.00;;;;;;5014186;28;20217;-60
2021/12/28 02:03:26;;;;;;;10.80;3.27;;;7.60;1.00;;;;;;5014663;28;20207;-59
2021/12/28 02:05:54;;;;;;;9.73;3.43;;;7.60;1.00;;;;;;5014383;28;20261;-60
2021/12/28 02:08:21;;;;;;;6.87;2.80;;;7.60;1.00;;;;;;5014305;28;20242;-60
2021/12/28 02:10:51;;;;;;;6.17;2.57;;;7.60;1.00;;;;;;5014421;28;20691;-56
2021/12/28 02:13:19;;;;;;;12.67;3.20;;;7.60;1.00;;;;;;5013883;28;20207;-60
2021/12/28 02:15:47;;;;;;;7.90;2.20;;;7.60;1.00;;;;;;5014122;28;20750;-58
2021/12/28 02:18:18;;;;;;;9.27;3.10;;;7.60;1.00;;;;;;5014059;28;20234;-58
2021/12/28 02:20:46;;;;;;;6.90;2.80;;;7.70;1.00;;;;;;5013897;28;20215;-56
2021/12/28 02:23:13;;;;;;;11.33;2.87;;;7.60;1.00;;;;;;5013970;28;20207;-59
2021/12/28 02:25:40;;;;;;;8.80;2.77;;;7.60;1.00;;;;;;5013685;28;20678;-56
2021/12/28 02:28:09;;;;;;;12.90;2.57;;;7.70;1.00;;;;;;5013600;28;20718;-56
2021/12/28 02:30:39;;;;;;;8.70;2.87;;;7.70;1.00;;;;;;5012798;28;20204;-57
2021/12/28 02:33:06;;;;;;;6.60;2.60;;;7.70;1.00;;;;;;5013955;28;20216;-57
2021/12/28 02:35:35;;;;;;;11.30;3.17;;;7.70;1.00;;;;;;5013914;28;20208;-60
2021/12/28 02:38:04;;;;;;;9.93;2.90;;;7.80;1.00;;;;;;5013441;28;20236;-60
2021/12/28 02:40:33;;;;;;;10.80;2.63;;;7.80;1.00;;;;;;5013185;28;20220;-60
2021/12/28 02:43:02;;;;;;;7.73;2.50;;;7.80;1.00;;;;;;5013348;28;20214;-59
2021/12/28 02:45:32;;;;;;;10.03;2.57;;;7.80;1.00;;;;;;5012917;28;20724;-60
2021/12/28 02:47:59;;;;;;;15.17;3.37;;;7.80;1.00;;;;;;5012621;28;20655;-59
2021/12/28 02:50:28;;;;;;;6.77;2.67;;;7.80;1.00;;;;;;5012928;28;20616;-59
2021/12/28 02:52:55;;;;;;;10.13;2.70;;;7.90;1.00;;;;;;5012554;28;20212;-59
2021/12/28 02:55:25;;;;;;;10.10;2.70;;;7.80;1.00;;;;;;5013119;28;20207;-60
2021/12/28 02:57:55;;;;;;;10.33;2.83;;;7.80;1.00;;;;;;5012745;28;20236;-60
2021/12/28 03:00:31;;;;;;;8.50;2.67;;;7.80;1.00;;;;;;5013150;28;20265;-57
2021/12/28 03:02:58;;;;;;;12.43;3.37;;;7.90;1.00;;;;;;5013410;28;20207;-60
2021/12/28 03:05:25;;;;;;;7.77;2.40;;;8.00;1.00;;;;;;5012988;28;20234;-59
2021/12/28 03:07:52;;;;;;;12.07;3.07;;;8.00;1.00;;;;;;5012972;28;20232;-56
2021/12/28 03:10:19;;;;;;;11.47;2.43;;;8.00;1.00;;;;;;5012978;28;20212;-55
2021/12/28 03:12:47;;;;;;;11.37;2.73;;;8.00;1.00;;;;;;5012716;28;20563;-60
2021/12/28 03:15:13;;;;;;;13.33;2.57;;;8.10;1.00;;;;;;5012576;28;20215;-58
2021/12/28 03:17:42;;;;;;;15.87;3.33;;;8.00;1.00;;;;;;5012572;28;20844;-58
2021/12/28 03:20:13;;;;;;;8.90;2.73;;;8.00;1.00;;;;;;5012228;28;20219;-59
2021/12/28 03:22:39;;;;;;;9.27;2.70;;;8.00;1.00;;;;;;5012588;28;20212;-59
2021/12/28 03:25:08;;;;;;;11.90;2.80;;;8.10;1.00;;;;;;5012608;28;20250;-59
2021/12/28 03:27:35;;;;;;;7.77;2.43;;;8.20;1.00;;;;;;5012377;28;20228;-60
2021/12/28 03:30:07;;;;;;;11.27;2.27;;;8.10;99.90;;;;;;5012919;28;20263;-60
2021/12/28 03:32:34;;;;;;;11.10;2.60;;;8.20;99.90;;;;;;5012417;28;20274;-60
2021/12/28 03:35:03;;;;;;;10.97;2.67;;;8.20;99.90;;;;;;5012577;28;20214;-58
2021/12/28 03:37:30;;;;;;;15.47;2.93;;;8.20;99.90;;;;;;5011704;28;20734;-59
2021/12/28 03:39:56;;;;;;;12.27;3.17;;;8.20;99.90;;;;;;5012304;28;20204;-60
2021/12/28 03:42:23;;;;;;;12.50;2.87;;;8.20;99.90;;;;;;5011853;28;20210;-59
2021/12/28 03:44:50;;;;;;;12.87;3.17;;;8.20;99.90;;;;;;5011931;28;20687;-59
2021/12/28 03:47:18;;;;;;;14.83;2.73;;;8.20;99.90;;;;;;5011587;28;20270;-59
2021/12/28 03:49:45;;;;;;;13.07;2.80;;;8.20;99.90;;;;;;5011664;28;20742;-58
2021/12/28 03:52:12;;;;;;;10.37;2.67;;;8.30;99.90;;;;;;5012072;28;20597;-58
2021/12/28 03:54:39;;;;;;;16.77;2.87;;;8.30;99.90;;;;;;5011730;28;20212;-60
2021/12/28 03:57:06;;;;;;;16.27;3.07;;;8.30;99.90;;;;;;5011677;28;20617;-60
2021/12/28 03:59:33;;;;;;;12.03;2.50;;;8.30;99.90;;;;;;5011454;28;20651;-59
2021/12/28 04:02:00;;;;;;;15.83;3.23;;;8.30;99.90;;;;;;5012097;28;20212;-59
2021/12/28 04:04:28;;;;;;;18.40;2.90;;;8.30;99.90;;;;;;5012020;28;20205;-60
2021/12/28 04:06:54;;;;;;;14.50;3.00;;;8.30;99.90;;;;;;5011378;28;20669;-59
2021/12/28 04:09:45;;;;;;;9.53;2.30;;;8.30;99.90;;;;;;5011538;28;20240;-59
2021/12/28 04:12:09;;;;;;;14.70;2.43;;;8.40;99.90;;;;;;5011305;28;20253;-57
2021/12/28 04:14:35;;;;;;;15.70;3.10;;;8.40;99.90;;;;;;5011857;28;20211;-58
2021/12/28 04:17:02;;;;;;;12.17;3.27;;;8.40;99.90;;;;;;5011605;28;20216;-60
2021/12/28 04:19:30;;;;;;;13.90;3.07;;;8.40;99.90;;;;;;5011724;28;20305;-60
2021/12/28 04:21:57;;;;;;;16.47;2.67;;;8.40;99.90;;;;;;5012121;28;20234;-60
2021/12/28 04:24:24;;;;;;;16.30;3.00;;;8.50;99.90;;;;;;5012721;28;20211;-58
2021/12/28 04:26:51;;;;;;;18.83;3.10;;;8.50;99.90;;;;;;5011827;28;20807;-59
2021/12/28 04:29:17;;;;;;;13.30;2.67;;;8.50;99.90;;;;;;5011896;28;20283;-60
2021/12/28 04:31:44;;;;;;;9.10;2.30;;;8.50;1.00;;;;;;5011573;28;20263;-59
2021/12/28 04:34:11;;;;;;;14.20;3.17;;;8.50;1.00;;;;;;5011418;28;20659;-60
2021/12/28 04:36:39;;;;;;;15.43;2.90;;;8.50;1.00;;;;;;5011352;28;20271;-61
2021/12/28 04:39:07;;;;;;;13.23;3.00;;;8.60;1.00;;;;;;5012252;28;20229;-60
2021/12/28 04:41:35;;;;;;;17.60;3.13;;;8.50;1.00;;;;;;5012295;28;20218;-60
2021/12/28 04:44:02;;;;;;;14.70;2.93;;;8.60;1.00;;;;;;5012047;28;20236;-59
2021/12/28 04:46:29;;;;;;;16.80;3.13;;;8.50;1.00;;;;;;5011425;28;20671;-56
2021/12/28 04:48:56;;;;;;;13.03;3.03;;;8.50;1.00;;;;;;5011286;28;20722;-58
2021/12/28 04:51:23;;;;;;;15.40;2.47;;;8.50;1.00;;;;;;5011320;28;20208;-56
2021/12/28 04:53:54;;;;;;;13.20;2.87;;;8.50;1.00;;;;;;5011838;28;20263;-59
2021/12/28 04:56:22;;;;;;;11.20;2.90;;;8.40;1.00;;;;;;5015076;28;20893;-56
2021/12/28 04:58:48;;;;;;;16.47;2.90;;;8.40;1.00;;;;;;5015393;28;20220;-59
2021/12/28 05:01:15;;;;;;;10.77;2.70;;;8.40;1.00;;;;;;5015513;28;20240;-54
2021/12/28 05:03:42;;;;;;;16.37;2.80;;;8.40;1.00;;;;;;5015274;28;20208;-59
2021/12/28 05:06:08;;;;;;;15.67;3.33;;;8.30;1.00;;;;;;5015031;28;20204;-57
2021/12/28 05:08:35;;;;;;;12.93;2.57;;;8.30;1.00;;;;;;5015405;28;20280;-59
2021/12/28 05:11:03;;;;;;;13.10;3.10;;;8.30;1.00;;;;;;5015901;28;20208;-57
2021/12/28 05:13:30;;;;;;;12.67;2.37;;;8.30;1.00;;;;;;5015358;28;20622;-54
2021/12/28 05:15:57;;;;;;;16.03;2.73;;;8.30;1.00;;;;;;5014902;28;20620;-55
2021/12/28 05:18:24;;;;;;;9.73;2.40;;;8.40;1.00;;;;;;5015551;28;20226;-59
2021/12/28 05:20:50;;;;;;;9.10;2.03;;;8.40;1.00;;;;;;5015156;28;20207;-59
2021/12/28 05:23:17;;;;;;;11.90;2.90;;;8.40;1.00;;;;;;5015615;28;20234;-56
2021/12/28 05:25:44;;;;;;;11.07;3.27;;;8.40;1.00;;;;;;5014877;28;20219;-60
2021/12/28 05:28:12;;;;;;;16.33;2.60;;;8.40;1.00;;;;;;5014689;28;20282;-57
2021/12/28 05:30:39;;;;;;;11.13;2.30;;;8.40;1.00;;;;;;5014392;28;20671;-58
2021/12/28 05:33:06;;;;;;;11.13;2.93;;;8.40;1.00;;;;;;5014517;28;20208;-59
2021/12/28 05:35:33;;;;;;;13.77;3.10;;;8.40;1.00;;;;;;5014524;28;20235;-59
2021/12/28 05:38:00;;;;;;;9.90;2.70;;;8.40;1.00;;;;;;5014317;28;20326;-57
2021/12/28 05:40:27;;;;;;;10.33;2.77;;;8.40;1.00;;;;;;5014671;28;20545;-58
2021/12/28 05:42:54;;;;;;;12.07;2.37;;;8.40;1.00;;;;;;5014412;28;20274;-59
2021/12/28 05:45:22;;;;;;;7.97;2.13;;;8.40;1.00;;;;;;5014614;28;20207;-56
2021/12/28 05:47:48;;;;;;;14.87;3.00;;;8.40;1.00;;;;;;5013767;28;20228;-59
2021/12/28 05:50:15;;;;;;;8.97;2.97;;;8.40;1.00;;;;;;5014244;28;20232;-59
2021/12/28 05:52:42;;;;;;;7.20;2.60;;;8.40;1.00;;;;;;5014157;28;20210;-59
2021/12/28 05:55:09;;;;;;;13.27;3.27;;;8.30;1.00;;;;;;5014298;28;20838;-59
2021/12/28 05:57:36;;;;;;;12.33;3.23;;;8.40;1.00;;;;;;5014576;28;20237;-58
2021/12/28 06:00:04;;;;;;;9.63;2.67;;;8.40;1.00;;;;;;5014613;28;20276;-58
2021/12/28 06:02:32;;;;;;;11.50;3.13;;;8.30;1.00;;;;;;5014924;28;20232;-58
2021/12/28 06:04:59;;;;;;;8.13;2.70;;;8.40;1.00;;;;;;5014373;28;20266;-58
2021/12/28 06:07:27;;;;;;;9.13;3.10;;;8.30;1.00;;;;;;5014262;28;20288;-58
2021/12/28 06:09:55;;;;;;;5.03;2.57;;;8.40;1.00;;;;;;5014377;28;20334;-57
2021/12/28 06:12:22;;;;;;;9.50;2.97;;;8.40;1.00;;;;;;5014078;28;20298;-59
2021/12/28 06:14:49;;;;;;;7.50;2.77;;;8.40;1.00;;;;;;5013971;28;20207;-59
2021/12/28 06:17:17;;;;;;;9.03;3.00;;;8.40;1.00;;;;;;5013310;28;20804;-58
2021/12/28 06:19:45;;;;;;;10.03;3.30;;;8.40;1.00;;;;;;5013956;28;20204;-57
2021/12/28 06:22:11;;;;;;;8.57;2.90;;;8.50;1.00;;;;;;5013751;28;20214;-57
2021/12/28 06:24:38;;;;;;;6.17;2.23;;;8.40;1.00;;;;;;5013934;28;20209;-57
2021/12/28 06:27:05;;;;;;;10.07;3.03;;;8.50;1.00;;;;;;5013823;28;20757;-54
2021/12/28 06:29:32;;;;;;;11.93;3.13;;;8.50;1.00;;;;;;5013933;28;20228;-57
2021/12/28 06:31:58;;;;;;;7.40;3.13;;;8.50;1.00;;;;;;5013412;28;20671;-59
2021/12/28 06:34:25;;;;;;;8.60;3.20;;;8.60;1.00;;;;;;5013384;28;20266;-59
2021/12/28 06:36:53;;;;;;;11.37;2.60;;;8.60;1.00;;;;;;5013337;28;20220;-59
2021/12/28 06:39:20;;;;;;;7.43;2.60;;;8.60;1.00;;;;;;5013231;28;20586;-59
2021/12/28 06:41:46;;;;;;;8.57;2.90;;;8.60;1.00;;;;;;5013336;28;20208;-58
2021/12/28 06:44:13;;;;;;;6.20;2.83;;;8.60;1.00;;;;;;5012948;28;20208;-58
2021/12/28 06:46:40;;;;;;;5.77;2.67;;;8.60;1.00;;;;;;5012993;28;20680;-59
2021/12/28 06:49:07;;;;;;;5.47;2.60;;;8.60;1.00;;;;;;5013123;28;20284;-56
2021/12/28 06:51:34;;;;;;;6.70;3.00;;;8.60;1.00;;;;;;5013136;28;20249;-59
2021/12/28 06:54:02;;;;;;;9.50;2.57;;;8.60;1.00;;;;;;5013054;28;20243;-59
2021/12/28 06:56:29;;;;;;;9.17;3.43;;;8.60;1.00;;;;;;5012750;28;20627;-58
2021/12/28 06:58:55;;;;;;;9.37;2.90;;;8.60;1.00;;;;;;5012774;28;20639;-59
2021/12/28 07:01:23;;;;;;;8.80;2.83;;;8.60;1.00;;;;;;5012962;28;20263;-55
2021/12/28 07:03:49;;;;;;;9.27;2.83;;;8.60;1.00;;;;;;5013153;28;20290;-59
2021/12/28 07:06:16;;;;;;;9.37;2.50;;;8.50;1.00;;;;;;5012506;28;20216;-58
2021/12/28 07:08:44;;;;;;;8.10;2.50;;;8.50;1.00;;;;;;5012406;28;20727;-58
2021/12/28 07:11:12;;;;;;;5.00;2.57;;;8.50;1.00;;;;;;5012641;28;20211;-58
2021/12/28 07:13:39;;;;;;;7.07;2.30;;;8.50;1.00;;;;;;5012853;28;20215;-59
2021/12/28 07:16:05;;;;;;;8.77;2.90;;;8.50;1.00;;;;;;5012483;28;20259;-56
2021/12/28 07:18:32;;;;;;;8.13;2.67;;;8.50;1.00;;;;;;5012246;28;20649;-59
2021/12/28 07:21:00;;;;;;;4.17;2.17;;;8.50;1.00;;;;;;5012702;28;20634;-60
2021/12/28 07:23:27;;;;;;;6.33;2.27;;;8.50;1.00;;;;;;5012727;28;20299;-58
2021/12/28 07:25:54;;;;;;;6.23;2.80;;;8.50;1.00;;;;;;5012480;28;20215;-59
2021/12/28 07:28:22;;;;;;;3.67;2.00;;;8.50;1.00;;;;;;5012743;28;20237;-58
2021/12/28 07:30:50;;;;;;;7.47;2.57;;;8.40;1.00;;;;;;5012374;28;20628;-60
2021/12/28 07:33:17;;;;;;;7.27;2.37;;;8.50;1.00;;;;;;5012519;28;20213;-55
2021/12/28 07:35:44;;;;;;;5.70;2.30;;;8.50;1.00;;;;;;5012027;28;20630;-58
2021/12/28 07:38:10;;;;;;;5.03;2.13;;;8.40;1.00;;;;;;5011999;28;20240;-59
2021/12/28 07:40:37;;;;;;;3.40;2.00;;;8.40;1.00;;;;;;5012010;28;20267;-59
2021/12/28 07:43:04;;;;;;;4.63;1.90;;;8.40;1.00;;;;;;5012120;28;20219;-58
2021/12/28 07:45:33;;;;;;;8.40;2.13;;;8.50;1.00;;;;;;5012342;28;20630;-59
2021/12/28 07:47:59;;;;;;;7.47;2.20;;;8.50;1.00;;;;;;5011748;28;20229;-59
2021/12/28 07:50:26;;;;;;;5.33;1.90;;;8.50;1.00;;;;;;5012146;28;20646;-59
2021/12/28 07:52:53;;;;;;;7.27;2.40;;;8.50;1.00;;;;;;5012036;28;20688;-59
2021/12/28 07:55:20;;;;;;;4.37;2.03;;;8.50;1.00;;;;;;5012475;28;20209;-60
2021/12/28 07:57:47;;;;;;;7.97;2.10;;;8.40;1.00;;;;;;5011969;28;20238;-58
2021/12/28 08:00:16;;;;;;;5.70;2.17;;;8.40;1.00;;;;;;5012062;28;20205;-60
2021/12/28 08:02:45;;;;;;;3.73;1.93;;;8.40;1.00;;;;;;5012434;28;20212;-60
2021/12/28 08:05:12;;;;;;;4.37;1.60;;;8.40;1.00;;;;;;5012038;28;20631;-61
2021/12/28 08:07:39;;;;;;;6.20;2.07;;;8.40;1.00;;;;;;5011552;28;20298;-60
2021/12/28 08:10:08;;;;;;;5.27;1.83;;;8.50;1.00;;;;;;5011678;28;20234;-61
2021/12/28 08:12:35;;;;;;;4.50;1.90;;;8.50;1.00;;;;;;5012118;28;20211;-59
2021/12/28 08:15:03;;;;;;;4.60;1.70;;;8.40;1.00;;;;;;5012327;28;20243;-59
2021/12/28 08:17:30;;;;;;;3.87;1.80;;;8.40;1.00;;;;;;5011732;28;20237;-59
2021/12/28 08:19:58;;;;;;;3.77;1.63;;;8.50;1.00;;;;;;5012031;28;20213;-60
2021/12/28 08:22:25;;;;;;;2.80;1.70;;;8.50;1.00;;;;;;5011986;28;20347;-60
2021/12/28 08:24:52;;;;;;;3.53;1.50;;;8.50;1.00;;;;;;5011627;28;20320;-60
2021/12/28 08:27:19;;;;;;;3.77;2.07;;;8.50;1.00;;;;;;5011405;28;20302;-60
2021/12/28 08:29:45;;;;;;;3.00;1.40;;;8.50;1.00;;;;;;5014319;28;20223;-60
2021/12/28 08:32:12;;;;;;;4.17;1.70;;;8.60;1.00;;;;;;5016009;28;20235;-60
2021/12/28 08:34:39;;;;;;;4.87;2.10;;;8.60;1.00;;;;;;5016535;28;20220;-60
2021/12/28 08:37:07;;;;;;;2.33;1.27;;;8.70;1.00;;;;;;5015857;28;20204;-59
2021/12/28 08:39:34;;;;;;;4.67;1.60;;;8.60;1.00;;;;;;5015727;28;20633;-60
2021/12/28 08:42:00;;;;;;;3.23;1.63;;;8.60;1.00;;;;;;5016075;28;20263;-61
2021/12/28 08:44:28;;;;;;;3.23;1.37;;;8.60;1.00;;;;;;5016051;28;20239;-61
2021/12/28 08:46:55;;;;;;;3.90;1.50;;;8.70;1.00;;;;;;5015987;28;20533;-61
2021/12/28 08:49:22;;;;;;;2.50;1.40;;;8.70;1.00;;;;;;5016251;28;20321;-59
2021/12/28 08:51:49;;;;;;;4.57;1.40;;;8.80;1.00;;;;;;5011538;28;20236;-59
2021/12/28 08:54:17;;;;;;;2.03;1.40;;;8.90;1.00;;;;;;5014776;28;20300;-58
2021/12/28 08:56:45;;;;;;;2.87;1.23;;;8.90;1.00;;;;;;5014741;28;20215;-61
2021/12/28 08:59:11;;;;;;;4.50;1.10;;;8.90;1.00;;;;;;5014863;28;20296;-65
2021/12/28 09:01:38;;;;;;;2.93;1.10;;;9.00;1.00;;;;;;5014167;28;20583;-61
2021/12/28 09:04:05;;;;;;;3.87;1.10;;;9.00;1.00;;;;;;5015046;28;20231;-60
2021/12/28 09:06:32;;;;;;;1.93;1.10;;;9.00;1.00;;;;;;5014895;28;20668;-62
2021/12/28 09:08:59;;;;;;;2.00;1.20;;;9.10;1.00;;;;;;5014818;28;20284;-60
2021/12/28 09:11:27;;;;;;;2.20;1.20;;;9.10;1.00;;;;;;5014364;28;20634;-57
2021/12/28 09:13:53;;;;;;;1.80;0.80;;;9.20;1.00;;;;;;5014513;28;20744;-56
2021/12/28 09:16:20;;;;;;;2.03;1.20;;;9.20;1.00;;;;;;5014124;28;20620;-60
2021/12/28 09:18:47;;;;;;;1.47;0.90;;;9.30;1.00;;;;;;5014659;28;20653;-56
2021/12/28 09:21:14;;;;;;;2.50;1.07;;;9.30;1.00;;;;;;5014025;28;20269;-59
2021/12/28 09:23:40;;;;;;;2.40;1.10;;;9.30;1.00;;;;;;5014485;28;20237;-59
2021/12/28 09:26:08;;;;;;;6.33;1.20;;;9.20;1.00;;;;;;5013463;28;20218;-55
2021/12/28 09:28:36;;;;;;;1.90;0.90;;;9.20;1.00;;;;;;5014264;28;20291;-59
2021/12/28 09:31:03;;;;;;;1.10;0.80;;;9.20;1.00;;;;;;5013450;28;20731;-60
2021/12/28 09:33:30;;;;;;;2.23;0.90;;;9.30;1.00;;;;;;5014248;28;20324;-60
2021/12/28 09:36:00;;;;;;;4.50;0.93;;;9.30;1.00;;;;;;5013957;28;20217;-60
2021/12/28 09:38:26;;;;;;;4.30;1.37;;;9.30;1.00;;;;;;5013780;28;20740;-61
2021/12/28 09:40:53;;;;;;;2.73;1.00;;;9.30;99.90;;;;;;5013660;28;20578;-61
2021/12/28 09:43:20;;;;;;;2.40;0.90;;;9.40;99.90;;;;;;5013772;28;20209;-61
2021/12/28 09:45:48;;;;;;;2.40;1.10;;;9.50;99.90;;;;;;5014323;28;20210;-61
2021/12/28 09:48:15;;;;;;;2.27;1.07;;;9.60;99.90;;;;;;5013890;28;20605;-58
2021/12/28 09:50:43;;;;;;;3.80;0.90;;;9.60;99.90;;;;;;5013503;28;20740;-59
2021/12/28 09:53:13;;;;;;;2.07;1.00;;;9.70;99.90;;;;;;5013966;28;20253;-60
2021/12/28 09:55:41;;;;;;;1.60;0.97;;;9.80;99.90;;;;;;5014082;28;20199;-61
2021/12/28 09:58:09;;;;;;;2.70;0.80;;;9.90;99.90;;;;;;5013857;28;20257;-61
2021/12/28 10:00:36;;;;;;;1.10;0.60;;;10.00;99.90;;;;;;5013393;28;20708;-61
2021/12/28 10:03:05;;;;;;;2.30;1.00;;;10.00;99.90;;;;;;5013887;28;20229;-61
2021/12/28 10:05:33;;;;;;;1.43;1.00;;;9.90;99.90;;;;;;5013811;28;20580;-62
2021/12/28 10:08:02;;;;;;;1.00;0.83;;;9.90;99.90;;;;;;5013623;28;20265;-59
2021/12/28 10:10:31;;;;;;;1.60;0.90;;;9.90;99.90;;;;;;5013501;28;20223;-58
2021/12/28 10:13:00;;;;;;;2.27;1.03;;;9.90;99.90;;;;;;5013722;28;20711;-60
2021/12/28 10:15:30;;;;;;;2.23;1.13;;;9.90;99.90;;;;;;5013967;28;20230;-56
2021/12/28 10:17:59;;;;;;;2.77;0.83;;;9.80;99.90;;;;;;5013527;28;20234;-57
2021/12/28 10:20:29;;;;;;;2.97;0.97;;;9.80;99.90;;;;;;5013076;28;20608;-59
2021/12/28 10:22:58;;;;;;;1.90;0.87;;;9.70;99.90;;;;;;5013290;28;20265;-58
2021/12/28 10:25:28;;;;;;;1.17;0.93;;;9.70;1.00;;;;;;5013437;28;20829;-57
2021/12/28 10:27:58;;;;;;;1.00;0.80;;;9.60;1.00;;;;;;5013280;28;20231;-58
2021/12/28 10:30:28;;;;;;;3.17;1.07;;;9.60;1.00;;;;;;5012004;28;20223;-59
2021/12/28 10:32:56;;;;;;;0.70;0.67;;;9.60;1.00;;;;;;5013009;28;20217;-58
2021/12/28 10:35:25;;;;;;;2.03;0.80;;;9.50;1.00;;;;;;5013066;28;20677;-59
2021/12/28 10:37:55;;;;;;;1.40;0.87;;;9.50;1.00;;;;;;5012595;28;20292;-61
2021/12/28 10:40:25;;;;;;;1.07;0.83;;;9.50;1.00;;;;;;5013166;28;20711;-60
2021/12/28 10:43:03;;;;;;;0.70;0.70;;;9.40;1.00;;;;;;5012962;28;20218;-59
2021/12/28 10:45:36;;;;;;;1.80;0.70;;;9.30;1.00;;;;;;5013537;28;20218;-58
2021/12/28 10:48:07;;;;;;;0.80;0.70;;;9.30;1.00;;;;;;5012694;28;20232;-60
2021/12/28 10:50:38;;;;;;;0.80;0.80;;;9.30;1.00;;;;;;5012810;28;20238;-60
2021/12/28 10:53:17;;;;;;;0.80;0.77;;;9.30;1.00;;;;;;5012223;28;20214;-59
2021/12/28 10:55:46;;;;;;;1.70;0.80;;;9.30;1.00;;;;;;5012856;28;20227;-60
2021/12/28 10:58:28;;;;;;;0.70;0.70;;;9.30;1.00;;;;;;5010223;28;20231;-59
2021/12/28 11:01:01;;;;;;;1.20;0.70;;;9.30;1.00;;;;;;5012438;28;20202;-60
2021/12/28 11:03:34;;;;;;;2.77;0.63;;;9.30;1.00;;;;;;5012624;28;20213;-60
2021/12/28 11:06:11;;;;;;;1.17;0.63;;;9.30;1.00;;;;;;5012304;28;20688;-61
2021/12/28 11:08:41;;;;;;;2.00;0.63;;;9.30;1.00;;;;;;5011852;28;20336;-59
2021/12/28 11:11:11;;;;;;;0.50;0.50;;;9.30;1.00;;;;;;5012166;28;20817;-61
2021/12/28 11:13:38;;;;;;;1.53;0.50;;;9.30;1.00;;;;;;5011872;28;20219;-62
2021/12/28 11:16:08;;;;;;;0.97;0.70;;;9.30;1.00;;;;;;5011582;28;20261;-59
2021/12/28 11:18:37;;;;;;;0.50;0.50;;;9.30;1.00;;;;;;5012271;28;20227;-58
2021/12/28 11:21:15;;;;;;;0.70;0.60;;;9.40;1.00;;;;;;5012449;28;20199;-58
2021/12/28 11:23:46;;;;;;;0.83;0.80;;;9.30;1.00;;;;;;5012609;28;20210;-59
2021/12/28 11:26:20;;;;;;;0.70;0.70;;;9.40;1.00;;;;;;5011959;28;20280;-61
2021/12/28 11:28:57;;;;;;;2.23;0.70;;;9.40;1.00;;;;;;5012069;28;20233;-59
2021/12/28 11:31:26;;;;;;;0.90;0.70;;;9.40;1.00;;;;;;5011609;28;20256;-59
2021/12/28 11:34:11;;;;;;;1.13;0.83;;;9.40;1.00;;;;;;5011978;28;20214;-58
2021/12/28 11:36:42;;;;;;;0.63;0.60;;;9.50;1.00;;;;;;5011874;28;20238;-55
2021/12/28 11:39:16;;;;;;;1.27;0.83;;;9.60;1.00;;;;;;5011732;28;20241;-59
2021/12/28 11:41:44;;;;;;;1.10;0.90;;;9.60;1.00;;;;;;5010995;28;20685;-59
2021/12/28 11:44:11;;;;;;;1.10;0.80;;;9.60;1.00;;;;;;5009340;28;20211;-60
2021/12/28 11:46:39;;;;;;;1.00;0.70;;;9.60;1.00;;;;;;5009895;28;20203;-58
2021/12/28 11:49:08;;;;;;;1.43;0.90;;;9.50;1.00;;;;;;5011517;28;20232;-60
2021/12/28 11:51:35;;;;;;;1.87;1.30;;;9.40;1.00;;;;;;5011514;28;20237;-60
2021/12/28 11:54:06;;;;;;;1.13;0.80;;;9.50;1.00;;;;;;5011406;28;20632;-63
2021/12/28 11:56:37;;;;;;;1.00;0.80;;;9.50;1.00;;;;;;5011353;28;20213;-60
2021/12/28 11:59:09;;;;;;;1.00;0.90;;;9.40;1.00;;;;;;5011479;28;20223;-61
2021/12/28 12:01:54;;;;;;;1.53;0.77;;;9.40;1.00;;;;;;5011225;28;20207;-60
2021/12/28 12:04:48;;;;;;;2.00;1.10;;;9.50;1.00;;;;;;5011695;28;20629;-61
2021/12/28 12:07:22;;;;;;;1.17;0.90;;;9.50;1.00;;;;;;5014539;28;20217;-60
2021/12/28 12:10:10;;;;;;;0.90;0.83;;;9.50;1.00;;;;;;5012614;28;20215;-61
2021/12/28 12:12:53;;;;;;;1.20;0.90;;;9.60;1.00;;;;;;5011557;28;20210;-58
2021/12/28 12:15:21;;;;;;;2.27;1.10;;;9.60;1.00;;;;;;5011506;28;20222;-59
2021/12/28 12:17:48;;;;;;;1.30;0.90;;;9.60;1.00;;;;;;5011260;28;20265;-61
2021/12/28 12:20:33;;;;;;;3.17;1.10;;;9.60;1.00;;;;;;5012244;28;20203;-61
2021/12/28 12:23:22;;;;;;;0.90;0.80;;;9.60;1.00;;;;;;5012624;28;20234;-60
2021/12/28 12:25:57;;;;;;;1.10;0.70;;;9.60;1.00;;;;;;4979489;28;20710;-60
2021/12/28 12:28:37;;;;;;;1.30;1.00;;;9.60;1.00;;;;;;5011375;28;20234;-60
2021/12/28 12:31:07;;;;;;;1.50;0.90;;;9.60;1.00;;;;;;5011249;28;20238;-58
2021/12/28 12:33:37;;;;;;;1.60;0.87;;;9.60;1.00;;;;;;5012049;28;20211;-59
2021/12/28 12:36:08;;;;;;;2.40;0.87;;;9.50;1.00;;;;;;5011648;28;20215;-58
2021/12/28 12:38:37;;;;;;;0.60;0.60;;;9.50;1.00;;;;;;5011491;28;20733;-60
2021/12/28 12:41:13;;;;;;;1.23;0.80;;;9.50;1.00;;;;;;5011235;28;20203;-67
2021/12/28 12:43:58;;;;;;;1.17;0.90;;;9.50;1.00;;;;;;5011759;28;20210;-66
2021/12/28 12:46:29;;;;;;;2.33;0.90;;;9.40;1.00;;;;;;5011236;28;20214;-69
2021/12/28 12:49:05;;;;;;;1.20;0.90;;;9.50;1.00;;;;;;5010939;28;20717;-68
2021/12/28 12:51:37;;;;;;;0.97;0.70;;;9.50;1.00;;;;;;5010957;28;20853;-70
2021/12/28 12:54:16;;;;;;;1.13;0.70;;;9.50;1.00;;;;;;5011619;28;20254;-66
2021/12/28 12:56:57;;;;;;;2.50;0.80;;;9.50;1.00;;;;;;5010948;28;20217;-66
2021/12/28 12:59:28;;;;;;;3.33;0.97;;;9.50;1.00;;;;;;5010578;28;20312;-67
2021/12/28 13:02:04;;;;;;;2.50;1.20;;;9.50;1.00;;;;;;5010908;28;20582;-67
2021/12/28 13:04:43;;;;;;;4.30;1.30;;;9.50;1.00;;;;;;5010905;28;20585;-66
2021/12/28 13:07:14;;;;;;;4.63;1.67;;;9.40;1.00;;;;;;5010821;28;20211;-67
2021/12/28 13:09:42;;;;;;;3.43;1.50;;;9.50;1.00;;;;;;5010993;28;20616;-67
2021/12/28 13:12:11;;;;;;;8.13;1.57;;;9.50;1.00;;;;;;5010787;28;20318;-67